createdAt,value
2023-03-13T00:00:03.706Z,4.91
2023-03-13T00:01:16.571Z,4.91
2023-03-13T00:02:18.405Z,4.90
2023-03-13T00:03:20.022Z,4.89
2023-03-13T00:04:21.572Z,4.91
2023-03-13T00:05:23.207Z,4.91
2023-03-13T00:06:28.540Z,4.89
2023-03-13T00:07:30.141Z,4.85
2023-03-13T00:08:31.794Z,4.91
2023-03-13T00:09:33.361Z,4.91
2023-03-13T00:10:39.337Z,4.91
2023-03-13T00:11:41.138Z,4.84
2023-03-13T00:12:42.761Z,4.87
2023-03-13T00:13:44.501Z,4.84
2023-03-13T00:14:46.469Z,4.83
2023-03-13T00:15:48.297Z,4.83
2023-03-13T00:16:49.935Z,4.87
2023-03-13T00:17:51.643Z,4.89
2023-03-13T00:18:54.703Z,4.85
2023-03-13T00:19:56.269Z,4.79
2023-03-13T00:21:03.926Z,4.78
2023-03-13T00:22:05.571Z,4.78
2023-03-13T00:23:07.429Z,4.78
2023-03-13T00:24:11.027Z,4.82
2023-03-13T00:25:12.691Z,4.78
2023-03-13T00:26:17.414Z,4.77
2023-03-13T00:27:18.954Z,4.79
2023-03-13T00:28:23.494Z,4.85
2023-03-13T00:29:25.070Z,4.85
2023-03-13T00:30:27.774Z,4.87
2023-03-13T00:31:31.415Z,4.86
2023-03-13T00:32:33.330Z,4.82
2023-03-13T00:33:39.950Z,4.86
2023-03-13T00:34:41.558Z,4.83
2023-03-13T00:35:43.409Z,4.83
2023-03-13T00:36:45.249Z,4.85
2023-03-13T00:37:46.834Z,4.87
2023-03-13T00:38:49.141Z,4.82
2023-03-13T00:39:50.888Z,4.83
2023-03-13T00:40:59.578Z,4.81
2023-03-13T00:42:02.051Z,4.74
2023-03-13T00:43:03.642Z,4.74
2023-03-13T00:44:05.290Z,4.68
2023-03-13T00:45:07.353Z,4.68
2023-03-13T00:46:09.980Z,4.71
2023-03-13T00:47:11.616Z,4.69
2023-03-13T00:48:13.188Z,4.74
2023-03-13T00:49:14.778Z,4.77
2023-03-13T00:50:16.647Z,4.82
2023-03-13T00:51:19.673Z,4.83
2023-03-13T00:52:22.961Z,4.85
2023-03-13T00:53:24.773Z,4.92
2023-03-13T00:54:26.398Z,4.89
2023-03-13T00:55:27.947Z,4.92
2023-03-13T00:56:30.115Z,4.94
2023-03-13T00:57:31.718Z,4.95
2023-03-13T00:58:35.946Z,4.97
2023-03-13T00:59:37.500Z,4.88
2023-03-13T01:00:39.060Z,4.85
2023-03-13T01:01:40.777Z,4.89
2023-03-13T01:02:43.300Z,4.88
2023-03-13T01:03:48.385Z,4.89
2023-03-13T01:04:49.974Z,4.96
2023-03-13T01:06:01.933Z,4.91
2023-03-13T01:07:03.957Z,4.90
2023-03-13T01:08:05.577Z,4.90
2023-03-13T01:09:07.850Z,4.88
2023-03-13T01:10:09.965Z,4.93
2023-03-13T01:11:14.257Z,4.87
2023-03-13T01:12:15.832Z,4.82
2023-03-13T01:13:17.452Z,4.84
2023-03-13T01:14:20.410Z,4.88
2023-03-13T01:15:22.101Z,4.81
2023-03-13T01:16:25.239Z,4.81
2023-03-13T01:17:26.824Z,4.81
2023-03-13T01:18:28.517Z,4.81
2023-03-13T01:19:30.455Z,4.80
2023-03-13T01:20:32.128Z,4.83
2023-03-13T01:21:34.097Z,4.84
2023-03-13T01:22:35.653Z,4.86
2023-03-13T01:23:37.466Z,4.88
2023-03-13T01:24:39.011Z,4.89
2023-03-13T01:25:40.575Z,4.95
2023-03-13T01:26:42.179Z,4.91
2023-03-13T01:27:43.762Z,4.89
2023-03-13T01:28:45.718Z,4.91
2023-03-13T01:29:47.336Z,4.93
2023-03-13T01:30:49.007Z,4.87
2023-03-13T01:31:50.796Z,4.91
2023-03-13T01:32:52.466Z,4.92
2023-03-13T01:33:56.757Z,4.96
2023-03-13T01:34:58.532Z,4.98
2023-03-13T01:36:03.924Z,4.97
2023-03-13T01:37:05.592Z,4.95
2023-03-13T01:38:07.345Z,4.91
2023-03-13T01:39:09.164Z,4.94
2023-03-13T01:40:11.634Z,4.96
2023-03-13T01:41:13.510Z,4.97
2023-03-13T01:42:15.614Z,4.95
2023-03-13T01:43:27.160Z,4.98
2023-03-13T01:44:49.735Z,5.03
2023-03-13T01:45:58.811Z,5.03
2023-03-13T01:47:03.228Z,5.02
2023-03-13T01:48:34.650Z,5.03
2023-03-13T01:49:36.292Z,5.03
2023-03-13T01:50:56.892Z,4.99
2023-03-13T01:52:06.264Z,5.01
2023-03-13T01:53:11.333Z,5.04
2023-03-13T01:54:16.280Z,5.02
2023-03-13T01:55:18.287Z,4.96
2023-03-13T01:56:37.729Z,4.99
2023-03-13T01:57:50.657Z,5.01
2023-03-13T01:58:57.539Z,4.99
2023-03-13T02:00:08.262Z,4.99
2023-03-13T02:01:16.390Z,4.99
2023-03-13T02:02:18.310Z,5.02
2023-03-13T02:03:22.110Z,4.99
2023-03-13T02:04:27.323Z,4.97
2023-03-13T02:05:31.118Z,5.00
2023-03-13T02:06:36.472Z,4.97
2023-03-13T02:07:41.603Z,4.93
2023-03-13T02:08:55.652Z,4.93
2023-03-13T02:09:57.747Z,4.97
2023-03-13T02:11:09.965Z,5.01
2023-03-13T02:12:19.193Z,5.00
2023-03-13T02:13:21.086Z,5.01
2023-03-13T02:14:28.626Z,5.04
2023-03-13T02:15:31.325Z,5.02
2023-03-13T02:16:34.634Z,5.04
2023-03-13T02:17:38.289Z,5.04
2023-03-13T02:18:40.024Z,5.06
2023-03-13T02:19:47.465Z,5.14
2023-03-13T02:20:55.629Z,5.17
2023-03-13T02:22:21.665Z,5.15
2023-03-13T02:23:32.126Z,5.15
2023-03-13T02:25:10.312Z,5.19
2023-03-13T02:26:13.277Z,5.17
2023-03-13T02:27:14.911Z,5.12
2023-03-13T02:28:21.558Z,5.16
2023-03-13T02:29:24.937Z,5.21
2023-03-13T02:30:27.553Z,5.19
2023-03-13T02:31:29.193Z,5.23
2023-03-13T02:32:31.513Z,5.21
2023-03-13T02:33:39.162Z,5.23
2023-03-13T02:34:44.261Z,5.24
2023-03-13T02:35:47.317Z,5.27
2023-03-13T02:36:50.674Z,5.23
2023-03-13T02:37:57.892Z,5.25
2023-03-13T02:39:04.291Z,5.24
2023-03-13T02:40:09.615Z,5.23
2023-03-13T02:41:13.459Z,5.26
2023-03-13T02:42:17.852Z,5.27
2023-03-13T02:43:26.276Z,5.27
2023-03-13T02:44:27.923Z,5.31
2023-03-13T02:45:29.538Z,5.26
2023-03-13T02:46:31.351Z,5.30
2023-03-13T02:47:33.005Z,5.28
2023-03-13T02:48:38.375Z,5.34
2023-03-13T02:49:39.961Z,5.34
2023-03-13T02:50:41.649Z,5.34
2023-03-13T02:51:45.367Z,5.37
2023-03-13T02:52:53.642Z,5.33
2023-03-13T02:54:00.550Z,5.31
2023-03-13T02:55:07.443Z,5.33
2023-03-13T02:56:11.560Z,5.32
2023-03-13T02:57:13.365Z,5.29
2023-03-13T02:58:15.049Z,5.31
2023-03-13T02:59:16.890Z,5.32
2023-03-13T03:00:20.948Z,5.28
2023-03-13T03:01:22.604Z,5.25
2023-03-13T03:02:24.257Z,5.24
2023-03-13T03:03:25.858Z,5.25
2023-03-13T03:04:27.624Z,5.25
2023-03-13T03:05:31.030Z,5.24
2023-03-13T03:06:33.141Z,5.18
2023-03-13T03:07:36.915Z,5.20
2023-03-13T03:08:39.547Z,5.21
2023-03-13T03:09:41.130Z,5.18
2023-03-13T03:10:47.333Z,5.20
2023-03-13T03:11:49.577Z,5.21
2023-03-13T03:12:51.159Z,5.22
2023-03-13T03:13:52.702Z,5.27
2023-03-13T03:14:54.259Z,5.24
2023-03-13T03:15:56.700Z,5.24
2023-03-13T03:16:58.412Z,5.22
2023-03-13T03:18:01.181Z,5.23
2023-03-13T03:19:03.018Z,5.20
2023-03-13T03:20:05.000Z,5.16
2023-03-13T03:21:07.213Z,5.20
2023-03-13T03:22:12.937Z,5.21
2023-03-13T03:23:14.493Z,5.19
2023-03-13T03:24:16.320Z,5.18
2023-03-13T03:25:17.920Z,5.18
2023-03-13T03:26:19.865Z,5.17
2023-03-13T03:27:21.483Z,5.14
2023-03-13T03:28:28.185Z,5.18
2023-03-13T03:29:29.882Z,5.18
2023-03-13T03:30:32.770Z,5.18
2023-03-13T03:31:34.504Z,5.13
2023-03-13T03:32:36.534Z,5.12
2023-03-13T03:33:39.179Z,5.15
2023-03-13T03:34:44.143Z,5.13
2023-03-13T03:35:45.840Z,5.12
2023-03-13T03:36:48.456Z,5.17
2023-03-13T03:37:50.080Z,5.15
2023-03-13T03:38:52.524Z,5.20
2023-03-13T03:39:58.716Z,5.17
2023-03-13T03:41:00.852Z,5.13
2023-03-13T03:42:02.804Z,5.09
2023-03-13T03:43:04.881Z,5.06
2023-03-13T03:44:06.694Z,5.14
2023-03-13T03:45:23.025Z,5.14
2023-03-13T03:46:25.428Z,5.14
2023-03-13T03:47:27.243Z,5.14
2023-03-13T03:48:29.055Z,5.16
2023-03-13T03:49:31.065Z,5.15
2023-03-13T03:50:32.769Z,5.17
2023-03-13T03:51:36.372Z,5.15
2023-03-13T03:52:38.467Z,5.14
2023-03-13T03:53:40.278Z,5.12
2023-03-13T03:54:42.037Z,5.14
2023-03-13T03:55:44.852Z,5.14
2023-03-13T03:56:46.627Z,5.14
2023-03-13T03:57:48.290Z,5.15
2023-03-13T03:58:56.218Z,5.19
2023-03-13T04:00:18.224Z,5.22
2023-03-13T04:01:25.621Z,5.22
2023-03-13T04:02:27.403Z,5.20
2023-03-13T04:03:29.310Z,5.17
2023-03-13T04:04:30.990Z,5.18
2023-03-13T04:05:40.207Z,5.17
2023-03-13T04:06:41.926Z,5.14
2023-03-13T04:07:44.332Z,5.13
2023-03-13T04:08:46.122Z,5.13
2023-03-13T04:09:50.857Z,5.11
2023-03-13T04:11:01.370Z,5.08
2023-03-13T04:12:04.175Z,5.06
2023-03-13T04:13:09.842Z,5.03
2023-03-13T04:14:11.596Z,5.05
2023-03-13T04:15:13.231Z,5.06
2023-03-13T04:16:16.583Z,5.06
2023-03-13T04:17:19.146Z,5.04
2023-03-13T04:18:21.668Z,5.03
2023-03-13T04:19:23.452Z,5.01
2023-03-13T04:20:26.492Z,5.05
2023-03-13T04:21:28.128Z,5.08
2023-03-13T04:22:37.037Z,5.07
2023-03-13T04:23:38.795Z,5.06
2023-03-13T04:24:40.524Z,5.10
2023-03-13T04:25:42.984Z,5.15
2023-03-13T04:26:46.584Z,5.13
2023-03-13T04:27:49.670Z,5.16
2023-03-13T04:28:51.942Z,5.20
2023-03-13T04:30:01.739Z,5.24
2023-03-13T04:31:16.469Z,5.17
2023-03-13T04:32:38.323Z,5.25
2023-03-13T04:33:59.400Z,5.29
2023-03-13T04:35:23.934Z,5.32
2023-03-13T04:36:38.338Z,5.30
2023-03-13T04:37:58.485Z,5.31
2023-03-13T04:39:18.652Z,5.33
2023-03-13T04:40:33.237Z,5.39
2023-03-13T04:41:48.502Z,5.44
2023-03-13T04:42:59.700Z,5.48
2023-03-13T04:44:20.214Z,5.47
2023-03-13T04:45:32.330Z,5.48
2023-03-13T04:46:54.293Z,5.48
2023-03-13T04:48:18.838Z,5.58
2023-03-13T04:49:46.624Z,5.61
2023-03-13T04:51:11.015Z,5.55
2023-03-13T04:52:26.523Z,5.59
2023-03-13T04:53:55.753Z,5.60
2023-03-13T04:55:17.638Z,5.67
2023-03-13T04:56:43.248Z,5.62
2023-03-13T04:58:00.383Z,5.60
2023-03-13T04:59:16.852Z,5.59
2023-03-13T05:00:47.334Z,5.52
2023-03-13T05:01:51.649Z,5.54
2023-03-13T05:03:10.221Z,5.48
2023-03-13T05:04:52.098Z,5.39
2023-03-13T05:06:20.071Z,5.34
2023-03-13T05:07:50.731Z,5.29
2023-03-13T05:09:17.973Z,5.29
2023-03-13T05:10:44.122Z,5.33
2023-03-13T05:12:20.770Z,5.24
2023-03-13T05:13:22.343Z,5.22
2023-03-13T05:14:46.711Z,5.21
2023-03-13T05:16:07.493Z,5.16
2023-03-13T05:17:27.920Z,5.12
2023-03-13T05:18:47.462Z,5.17
2023-03-13T05:20:07.938Z,5.20
2023-03-13T05:21:35.683Z,5.22
2023-03-13T05:22:55.850Z,5.25
2023-03-13T05:24:20.479Z,5.24
2023-03-13T05:25:39.799Z,5.29
2023-03-13T05:27:10.815Z,5.31
2023-03-13T05:28:35.537Z,5.31
2023-03-13T05:30:03.570Z,5.35
2023-03-13T05:31:18.958Z,5.38
2023-03-13T05:32:37.928Z,5.35
2023-03-13T05:33:55.970Z,5.34
2023-03-13T05:35:10.158Z,5.36
2023-03-13T05:36:44.431Z,5.39
2023-03-13T05:38:07.892Z,5.38
2023-03-13T05:39:27.970Z,5.38
2023-03-13T05:40:45.872Z,5.40
2023-03-13T05:42:14.988Z,5.45
2023-03-13T05:43:36.839Z,5.49
2023-03-13T05:45:01.594Z,5.54
2023-03-13T05:46:06.392Z,5.51
2023-03-13T05:47:23.485Z,5.56
2023-03-13T05:48:42.783Z,5.60
2023-03-13T05:49:56.198Z,5.69
2023-03-13T05:51:09.387Z,5.82
2023-03-13T05:52:28.185Z,5.84
2023-03-13T05:53:46.871Z,5.91
2023-03-13T05:55:11.429Z,5.96
2023-03-13T05:56:29.529Z,6.03
2023-03-13T05:57:51.364Z,6.04
2023-03-13T05:58:59.933Z,6.06
2023-03-13T06:00:20.163Z,6.13
2023-03-13T06:01:33.621Z,6.16
2023-03-13T06:02:41.097Z,6.18
2023-03-13T06:03:45.678Z,6.18
2023-03-13T06:04:49.029Z,6.21
2023-03-13T06:05:57.915Z,6.18
2023-03-13T06:07:19.848Z,6.12
2023-03-13T06:08:22.666Z,6.05
2023-03-13T06:09:25.191Z,6.08
2023-03-13T06:10:29.493Z,6.08
2023-03-13T06:11:31.199Z,6.15
2023-03-13T06:12:32.817Z,6.15
2023-03-13T06:13:34.722Z,6.11
2023-03-13T06:14:47.262Z,6.13
2023-03-13T06:15:58.125Z,6.15
2023-03-13T06:17:29.108Z,6.14
2023-03-13T06:18:30.956Z,6.13
2023-03-13T06:19:32.983Z,6.12
2023-03-13T06:20:34.629Z,6.11
2023-03-13T06:21:37.462Z,6.16
2023-03-13T06:22:39.212Z,6.22
2023-03-13T06:23:40.954Z,6.27
2023-03-13T06:24:42.530Z,6.31
2023-03-13T06:25:47.812Z,6.35
2023-03-13T06:26:50.105Z,6.30
2023-03-13T06:27:51.678Z,6.34
2023-03-13T06:28:53.322Z,6.31
2023-03-13T06:29:54.894Z,6.35
2023-03-13T06:31:01.983Z,6.35
2023-03-13T06:32:05.606Z,6.34
2023-03-13T06:33:07.671Z,6.32
2023-03-13T06:34:13.189Z,6.38
2023-03-13T06:35:14.826Z,6.39
2023-03-13T06:36:16.722Z,6.41
2023-03-13T06:37:20.622Z,6.45
2023-03-13T06:38:22.393Z,6.54
2023-03-13T06:39:24.404Z,6.52
2023-03-13T06:40:26.020Z,6.68
2023-03-13T06:41:27.694Z,6.72
2023-03-13T06:42:29.302Z,6.77
2023-03-13T06:43:31.282Z,6.82
2023-03-13T06:44:32.904Z,7.00
2023-03-13T06:45:36.311Z,7.13
2023-03-13T06:46:39.081Z,7.26
2023-03-13T06:47:40.704Z,7.37
2023-03-13T06:48:42.266Z,7.53
2023-03-13T06:49:43.844Z,7.68
2023-03-13T06:50:45.693Z,7.87
2023-03-13T06:51:47.290Z,8.02
2023-03-13T06:52:48.853Z,8.15
2023-03-13T06:53:50.429Z,8.30
2023-03-13T06:54:51.989Z,8.48
2023-03-13T06:55:53.544Z,8.57
2023-03-13T06:56:55.113Z,8.69
2023-03-13T06:57:56.729Z,8.70
2023-03-13T06:58:59.974Z,8.80
2023-03-13T07:00:01.978Z,8.85
2023-03-13T07:01:11.697Z,9.10
2023-03-13T07:02:16.195Z,9.26
2023-03-13T07:03:17.758Z,9.33
2023-03-13T07:04:19.382Z,9.48
2023-03-13T07:05:20.949Z,9.54
2023-03-13T07:06:22.520Z,9.67
2023-03-13T07:07:31.709Z,9.66
2023-03-13T07:08:34.901Z,9.90
2023-03-13T07:09:36.431Z,10.13
2023-03-13T07:10:37.987Z,10.29
2023-03-13T07:11:39.643Z,10.36
2023-03-13T07:12:41.173Z,10.45
2023-03-13T07:13:42.792Z,10.62
2023-03-13T07:14:44.632Z,10.67
2023-03-13T07:15:46.199Z,10.73
2023-03-13T07:16:47.841Z,10.86
2023-03-13T07:17:49.433Z,10.72
2023-03-13T07:18:50.996Z,10.85
2023-03-13T07:19:53.029Z,10.86
2023-03-13T07:20:56.574Z,10.99
2023-03-13T07:21:58.126Z,11.12
2023-03-13T07:22:59.688Z,11.16
2023-03-13T07:24:01.333Z,11.02
2023-03-13T07:25:03.896Z,11.02
2023-03-13T07:26:08.404Z,10.99
2023-03-13T07:27:09.992Z,11.09
2023-03-13T07:28:11.596Z,11.20
2023-03-13T07:29:13.131Z,11.22
2023-03-13T07:30:14.819Z,11.14
2023-03-13T07:31:21.385Z,10.85
2023-03-13T07:32:23.699Z,10.76
2023-03-13T07:33:25.299Z,10.84
2023-03-13T07:34:26.899Z,10.81
2023-03-13T07:35:28.414Z,10.96
2023-03-13T07:36:30.070Z,11.07
2023-03-13T07:37:31.690Z,11.04
2023-03-13T07:38:33.555Z,10.93
2023-03-13T07:39:35.078Z,10.86
2023-03-13T07:40:36.645Z,10.91
2023-03-13T07:41:40.023Z,10.91
2023-03-13T07:42:42.207Z,10.92
2023-03-13T07:43:44.111Z,10.98
2023-03-13T07:44:45.668Z,10.85
2023-03-13T07:45:59.165Z,10.79
2023-03-13T07:47:01.507Z,10.54
2023-03-13T07:48:03.081Z,10.42
2023-03-13T07:49:04.615Z,10.21
2023-03-13T07:50:06.844Z,10.09
2023-03-13T07:51:42.112Z,10.07
2023-03-13T07:52:44.784Z,9.91
2023-03-13T07:53:47.303Z,9.81
2023-03-13T07:54:48.881Z,9.78
2023-03-13T07:55:59.480Z,9.81
2023-03-13T07:57:02.770Z,9.89
2023-03-13T07:58:04.374Z,9.90
2023-03-13T07:59:06.855Z,9.79
2023-03-13T08:00:09.190Z,9.65
2023-03-13T08:01:16.647Z,9.51
2023-03-13T08:02:18.394Z,9.46
2023-03-13T08:03:20.701Z,9.36
2023-03-13T08:04:22.340Z,9.32
2023-03-13T08:05:23.946Z,9.32
2023-03-13T08:06:26.744Z,9.29
2023-03-13T08:07:28.319Z,9.21
2023-03-13T08:08:30.329Z,9.19
2023-03-13T08:09:33.118Z,9.10
2023-03-13T08:10:35.140Z,9.22
2023-03-13T08:11:39.155Z,9.30
2023-03-13T08:12:40.712Z,9.35
2023-03-13T08:13:42.784Z,9.57
2023-03-13T08:14:44.376Z,9.73
2023-03-13T08:15:46.147Z,9.79
2023-03-13T08:16:47.758Z,9.90
2023-03-13T08:17:49.350Z,10.01
2023-03-13T08:18:53.942Z,10.13
2023-03-13T08:19:55.535Z,10.06
2023-03-13T08:21:01.373Z,10.09
2023-03-13T08:22:03.178Z,10.05
2023-03-13T08:23:04.728Z,9.99
2023-03-13T08:24:08.364Z,10.01
2023-03-13T08:25:10.117Z,9.96
2023-03-13T08:26:15.364Z,9.97
2023-03-13T08:27:16.933Z,9.93
2023-03-13T08:28:18.743Z,9.97
2023-03-13T08:29:20.528Z,9.91
2023-03-13T08:30:22.082Z,9.96
2023-03-13T08:31:32.261Z,9.97
2023-03-13T08:32:34.990Z,9.95
2023-03-13T08:33:36.635Z,10.00
2023-03-13T08:34:38.853Z,9.99
2023-03-13T08:35:40.389Z,9.95
2023-03-13T08:36:42.408Z,9.98
2023-03-13T08:37:44.012Z,9.95
2023-03-13T08:38:47.484Z,9.87
2023-03-13T08:39:49.068Z,9.74
2023-03-13T08:40:56.839Z,9.63
2023-03-13T08:41:58.366Z,9.64
2023-03-13T08:43:00.531Z,9.54
2023-03-13T08:44:04.081Z,9.54
2023-03-13T08:45:06.758Z,9.49
2023-03-13T08:46:08.391Z,9.42
2023-03-13T08:47:09.998Z,9.41
2023-03-13T08:48:11.551Z,9.40
2023-03-13T08:49:13.886Z,9.40
2023-03-13T08:50:15.640Z,9.39
2023-03-13T08:51:18.439Z,9.38
2023-03-13T08:52:20.030Z,9.32
2023-03-13T08:53:21.578Z,9.36
2023-03-13T08:54:23.126Z,9.37
2023-03-13T08:55:26.526Z,9.41
2023-03-13T08:56:29.429Z,9.44
2023-03-13T08:57:31.017Z,9.28
2023-03-13T08:58:32.891Z,9.41
2023-03-13T08:59:34.454Z,9.47
2023-03-13T09:00:36.012Z,9.53
2023-03-13T09:01:37.563Z,9.56
2023-03-13T09:02:39.206Z,9.59
2023-03-13T09:03:41.845Z,9.66
2023-03-13T09:04:43.523Z,9.62
2023-03-13T09:05:55.687Z,9.65
2023-03-13T09:06:58.008Z,9.65
2023-03-13T09:07:59.582Z,9.53
2023-03-13T09:09:01.807Z,9.56
2023-03-13T09:10:03.636Z,9.54
2023-03-13T09:11:09.122Z,9.49
2023-03-13T09:12:24.780Z,9.48
2023-03-13T09:13:33.581Z,9.52
2023-03-13T09:14:36.693Z,9.58
2023-03-13T09:15:38.601Z,9.59
2023-03-13T09:16:40.380Z,9.59
2023-03-13T09:17:41.939Z,9.62
2023-03-13T09:18:44.170Z,9.65
2023-03-13T09:19:59.447Z,9.65
2023-03-13T09:21:02.638Z,9.66
2023-03-13T09:22:05.750Z,9.62
2023-03-13T09:23:07.328Z,9.70
2023-03-13T09:24:08.904Z,9.67
2023-03-13T09:25:11.398Z,9.70
2023-03-13T09:26:13.786Z,9.72
2023-03-13T09:27:15.387Z,9.68
2023-03-13T09:28:16.988Z,9.68
2023-03-13T09:29:18.572Z,9.74
2023-03-13T09:30:20.211Z,9.78
2023-03-13T09:31:27.998Z,9.81
2023-03-13T09:32:29.786Z,9.79
2023-03-13T09:33:31.386Z,9.81
2023-03-13T09:34:32.946Z,9.91
2023-03-13T09:35:34.525Z,9.82
2023-03-13T09:36:36.089Z,9.92
2023-03-13T09:37:37.652Z,9.91
2023-03-13T09:38:39.555Z,9.97
2023-03-13T09:39:41.304Z,10.02
2023-03-13T09:40:59.739Z,10.10
2023-03-13T09:42:17.795Z,10.13
2023-03-13T09:43:25.333Z,10.25
2023-03-13T09:44:32.568Z,10.30
2023-03-13T09:45:38.833Z,10.37
2023-03-13T09:46:48.287Z,10.44
2023-03-13T09:48:00.291Z,10.52
2023-03-13T09:49:27.995Z,10.59
2023-03-13T09:50:35.596Z,10.64
2023-03-13T09:51:39.201Z,10.68
2023-03-13T09:52:41.546Z,10.71
2023-03-13T09:53:46.418Z,10.70
2023-03-13T09:54:53.478Z,10.73
2023-03-13T09:55:55.393Z,10.81
2023-03-13T09:57:17.424Z,10.83
2023-03-13T09:58:18.900Z,10.85
2023-03-13T09:59:29.057Z,10.81
2023-03-13T10:00:39.511Z,10.81
2023-03-13T10:01:42.821Z,10.83
2023-03-13T10:02:47.549Z,10.87
2023-03-13T10:03:58.274Z,10.89
2023-03-13T10:05:05.627Z,10.89
2023-03-13T10:06:19.614Z,10.90
2023-03-13T10:07:21.173Z,10.90
2023-03-13T10:08:28.092Z,10.92
2023-03-13T10:09:33.800Z,10.89
2023-03-13T10:10:45.234Z,10.90
2023-03-13T10:11:53.721Z,10.95
2023-03-13T10:13:09.980Z,10.91
2023-03-13T10:14:18.313Z,10.83
2023-03-13T10:15:39.210Z,10.86
2023-03-13T10:16:56.578Z,10.87
2023-03-13T10:18:00.406Z,10.80
2023-03-13T10:19:14.647Z,10.83
2023-03-13T10:20:51.016Z,10.83
2023-03-13T10:21:55.700Z,10.80
2023-03-13T10:23:10.462Z,10.83
2023-03-13T10:24:30.734Z,10.85
2023-03-13T10:25:34.823Z,10.82
2023-03-13T10:26:37.578Z,10.86
2023-03-13T10:27:51.593Z,10.83
2023-03-13T10:28:53.523Z,10.89
2023-03-13T10:29:55.094Z,10.87
2023-03-13T10:31:10.844Z,10.88
2023-03-13T10:32:15.186Z,10.87
2023-03-13T10:33:26.132Z,10.88
2023-03-13T10:34:44.498Z,10.84
2023-03-13T10:35:46.307Z,10.78
2023-03-13T10:36:49.995Z,10.75
2023-03-13T10:38:02.276Z,10.67
2023-03-13T10:39:14.422Z,10.71
2023-03-13T10:40:25.457Z,10.71
2023-03-13T10:41:31.150Z,10.68
2023-03-13T10:42:35.401Z,10.66
2023-03-13T10:43:50.522Z,10.70
2023-03-13T10:44:58.300Z,10.65
2023-03-13T10:45:59.897Z,10.70
2023-03-13T10:47:03.205Z,10.73
2023-03-13T10:48:13.276Z,10.68
2023-03-13T10:49:24.073Z,10.77
2023-03-13T10:50:27.669Z,10.77
2023-03-13T10:51:40.669Z,10.80
2023-03-13T10:52:47.515Z,10.81
2023-03-13T10:53:49.362Z,10.83
2023-03-13T10:54:50.913Z,10.84
2023-03-13T10:55:55.122Z,10.89
2023-03-13T10:57:19.465Z,10.86
2023-03-13T10:58:33.184Z,10.86
2023-03-13T10:59:42.258Z,10.79
2023-03-13T11:00:43.801Z,10.74
2023-03-13T11:01:45.641Z,10.76
2023-03-13T11:02:47.348Z,10.74
2023-03-13T11:03:51.078Z,10.75
2023-03-13T11:04:53.082Z,10.73
2023-03-13T11:05:56.517Z,10.68
2023-03-13T11:07:02.688Z,10.70
2023-03-13T11:08:22.559Z,10.67
2023-03-13T11:09:24.156Z,10.60
2023-03-13T11:10:28.521Z,10.63
2023-03-13T11:11:30.771Z,10.68
2023-03-13T11:12:35.927Z,10.78
2023-03-13T11:13:41.063Z,10.77
2023-03-13T11:14:45.393Z,10.72
2023-03-13T11:15:54.468Z,10.74
2023-03-13T11:17:09.035Z,10.73
2023-03-13T11:18:26.068Z,10.76
2023-03-13T11:19:42.632Z,10.72
2023-03-13T11:20:46.536Z,10.68
2023-03-13T11:22:14.484Z,10.68
2023-03-13T11:23:26.020Z,10.66
2023-03-13T11:24:46.020Z,10.69
2023-03-13T11:26:19.526Z,10.78
2023-03-13T11:27:29.258Z,10.75
2023-03-13T11:28:33.883Z,10.84
2023-03-13T11:29:53.674Z,10.90
2023-03-13T11:30:55.314Z,10.93
2023-03-13T11:32:00.996Z,10.87
2023-03-13T11:33:28.141Z,10.90
2023-03-13T11:34:43.771Z,10.94
2023-03-13T11:35:47.101Z,10.95
2023-03-13T11:36:54.854Z,10.95
2023-03-13T11:37:57.287Z,10.94
2023-03-13T11:39:25.800Z,10.96
2023-03-13T11:40:43.598Z,10.96
2023-03-13T11:42:03.533Z,11.00
2023-03-13T11:43:58.610Z,10.99
2023-03-13T11:45:21.507Z,10.93
2023-03-13T11:46:29.837Z,10.90
2023-03-13T11:47:44.245Z,10.94
2023-03-13T11:49:10.211Z,10.93
2023-03-13T11:50:23.221Z,10.91
2023-03-13T11:51:30.265Z,10.86
2023-03-13T11:52:47.034Z,10.82
2023-03-13T11:54:29.945Z,10.79
2023-03-13T11:55:54.723Z,10.73
2023-03-13T11:57:12.881Z,10.72
2023-03-13T11:58:47.272Z,10.69
2023-03-13T12:00:03.526Z,10.59
2023-03-13T12:01:29.980Z,10.58
2023-03-13T12:02:36.285Z,10.54
2023-03-13T12:03:44.437Z,10.52
2023-03-13T12:04:53.197Z,10.48
2023-03-13T12:06:00.058Z,10.45
2023-03-13T12:07:20.232Z,10.45
2023-03-13T12:08:48.831Z,10.48
2023-03-13T12:10:02.175Z,10.44
2023-03-13T12:12:11.171Z,10.49
2023-03-13T12:13:31.693Z,10.39
2023-03-13T12:15:08.003Z,10.36
2023-03-13T12:16:15.174Z,10.27
2023-03-13T12:17:54.793Z,10.28
2023-03-13T12:18:57.792Z,10.26
2023-03-13T12:20:21.584Z,10.28
2023-03-13T12:21:37.066Z,10.26
2023-03-13T12:22:46.322Z,10.24
2023-03-13T12:24:03.075Z,10.25
2023-03-13T12:25:34.733Z,10.17
2023-03-13T12:26:49.506Z,10.11
2023-03-13T12:27:55.103Z,10.05
2023-03-13T12:29:21.669Z,10.08
2023-03-13T12:30:48.983Z,10.08
2023-03-13T12:32:25.186Z,10.04
2023-03-13T12:33:35.269Z,10.03
2023-03-13T12:34:51.533Z,9.98
2023-03-13T12:36:06.021Z,9.95
2023-03-13T12:37:45.266Z,9.97
2023-03-13T12:38:49.852Z,9.95
2023-03-13T12:40:00.832Z,9.90
2023-03-13T12:41:19.107Z,9.92
2023-03-13T12:42:31.042Z,9.87
2023-03-13T12:43:36.825Z,9.91
2023-03-13T12:44:39.970Z,9.88
2023-03-13T12:46:10.885Z,9.89
2023-03-13T12:47:28.579Z,9.89
2023-03-13T12:49:04.296Z,9.91
2023-03-13T12:50:43.106Z,10.01
2023-03-13T12:51:53.410Z,9.99
2023-03-13T12:53:11.563Z,9.96
2023-03-13T12:54:39.358Z,10.01
2023-03-13T12:56:04.492Z,10.05
2023-03-13T12:57:09.206Z,10.06
2023-03-13T12:58:41.496Z,10.07
2023-03-13T12:59:52.356Z,10.11
2023-03-13T13:00:56.251Z,10.15
2023-03-13T13:01:59.025Z,10.17
2023-03-13T13:03:15.824Z,10.21
2023-03-13T13:04:21.440Z,10.18
2023-03-13T13:05:23.442Z,10.20
2023-03-13T13:06:28.196Z,10.25
2023-03-13T13:07:29.904Z,10.24
2023-03-13T13:08:36.060Z,10.26
2023-03-13T13:09:59.207Z,10.27
2023-03-13T13:11:32.039Z,10.27
2023-03-13T13:12:33.727Z,10.23
2023-03-13T13:13:39.717Z,10.25
2023-03-13T13:14:50.410Z,10.25
2023-03-13T13:16:11.428Z,10.29
2023-03-13T13:17:28.295Z,10.33
2023-03-13T13:18:34.335Z,10.31
2023-03-13T13:19:41.824Z,10.34
2023-03-13T13:20:47.141Z,10.30
2023-03-13T13:22:30.442Z,10.26
2023-03-13T13:23:35.130Z,10.26
2023-03-13T13:24:50.712Z,10.27
2023-03-13T13:25:54.054Z,10.21
2023-03-13T13:26:55.637Z,10.26
2023-03-13T13:28:12.388Z,10.32
2023-03-13T13:29:13.972Z,10.37
2023-03-13T13:30:18.424Z,10.39
2023-03-13T13:31:44.927Z,10.43
2023-03-13T13:32:56.317Z,10.41
2023-03-13T13:33:58.012Z,10.38
2023-03-13T13:35:21.491Z,10.42
2023-03-13T13:36:28.271Z,10.44
2023-03-13T13:37:29.864Z,10.39
2023-03-13T13:38:32.357Z,10.37
2023-03-13T13:39:44.913Z,10.37
2023-03-13T13:41:01.748Z,10.42
2023-03-13T13:42:31.045Z,10.42
2023-03-13T13:43:35.241Z,10.43
2023-03-13T13:45:04.277Z,10.42
2023-03-13T13:46:23.388Z,10.41
2023-03-13T13:47:28.071Z,10.42
2023-03-13T13:48:32.082Z,10.42
2023-03-13T13:49:36.361Z,10.37
2023-03-13T13:50:38.123Z,10.39
2023-03-13T13:51:41.095Z,10.40
2023-03-13T13:52:43.853Z,10.37
2023-03-13T13:53:53.246Z,10.39
2023-03-13T13:54:57.210Z,10.45
2023-03-13T13:55:59.173Z,10.43
2023-03-13T13:57:14.192Z,10.40
2023-03-13T13:58:24.019Z,10.38
2023-03-13T13:59:31.545Z,10.40
2023-03-13T14:00:46.556Z,10.43
2023-03-13T14:01:50.416Z,10.46
2023-03-13T14:02:53.307Z,10.46
2023-03-13T14:04:21.427Z,10.42
2023-03-13T14:05:30.561Z,10.42
2023-03-13T14:06:36.576Z,10.48
2023-03-13T14:07:38.136Z,10.46
2023-03-13T14:08:41.909Z,10.39
2023-03-13T14:09:52.255Z,10.40
2023-03-13T14:11:27.853Z,10.33
2023-03-13T14:12:35.967Z,10.34
2023-03-13T14:13:37.582Z,10.32
2023-03-13T14:14:39.185Z,10.28
2023-03-13T14:15:46.591Z,10.32
2023-03-13T14:16:50.993Z,10.33
2023-03-13T14:17:58.687Z,10.32
2023-03-13T14:19:00.252Z,10.30
2023-03-13T14:20:01.952Z,10.29
2023-03-13T14:21:05.819Z,10.22
2023-03-13T14:22:10.359Z,10.24
2023-03-13T14:23:11.945Z,10.23
2023-03-13T14:24:15.187Z,10.21
2023-03-13T14:25:17.118Z,10.25
2023-03-13T14:26:23.726Z,10.26
2023-03-13T14:27:25.288Z,10.25
2023-03-13T14:28:29.060Z,10.30
2023-03-13T14:29:30.715Z,10.24
2023-03-13T14:30:32.334Z,10.25
2023-03-13T14:31:38.118Z,10.23
2023-03-13T14:32:40.626Z,10.21
2023-03-13T14:33:42.260Z,10.20
2023-03-13T14:34:44.041Z,10.23
2023-03-13T14:35:45.915Z,10.25
2023-03-13T14:36:53.517Z,10.20
2023-03-13T14:38:02.382Z,10.23
2023-03-13T14:39:03.962Z,10.21
2023-03-13T14:40:18.925Z,10.21
2023-03-13T14:41:33.196Z,10.21
2023-03-13T14:42:45.475Z,10.18
2023-03-13T14:43:47.087Z,10.17
2023-03-13T14:44:48.861Z,10.16
2023-03-13T14:45:50.836Z,10.13
2023-03-13T14:46:58.949Z,10.17
2023-03-13T14:48:16.886Z,10.22
2023-03-13T14:49:21.223Z,10.22
2023-03-13T14:50:24.447Z,10.19